sensor_id;sensor_type;location;lat;lon;timestamp;pressure;altitude;pressure_sealevel;temperature;humidity
54248;BME280;40161;39.768;2.722;2023-12-28T00:00:58;102252.53;;;9.27;100.00
54248;BME280;40161;39.768;2.722;2023-12-28T00:03:24;102222.78;;;8.94;100.00
54248;BME280;40161;39.768;2.722;2023-12-28T00:05:49;102241.34;;;8.97;100.00
54248;BME280;40161;39.768;2.722;2023-12-28T00:08:15;102205.34;;;8.73;100.00
54248;BME280;40161;39.768;2.722;2023-12-28T00:10:40;102252.28;;;8.97;100.00
54248;BME280;40161;39.768;2.722;2023-12-28T00:13:06;102237.03;;;9.05;100.00
54248;BME280;40161;39.768;2.722;2023-12-28T00:15:31;102225.06;;;9.01;100.00
54248;BME280;40161;39.768;2.722;2023-12-28T00:17:57;102240.22;;;8.98;100.00
54248;BME280;40161;39.768;2.722;2023-12-28T00:20:22;102238.59;;;8.89;100.00
54248;BME280;40161;39.768;2.722;2023-12-28T00:22:48;102236.41;;;8.68;100.00
54248;BME280;40161;39.768;2.722;2023-12-28T00:25:14;102243.50;;;8.69;100.00
54248;BME280;40161;39.768;2.722;2023-12-28T00:27:39;102221.47;;;8.74;100.00
54248;BME280;40161;39.768;2.722;2023-12-28T00:30:05;102199.53;;;8.66;100.00
54248;BME280;40161;39.768;2.722;2023-12-28T00:32:31;102220.97;;;8.72;100.00
54248;BME280;40161;39.768;2.722;2023-12-28T00:34:57;102230.50;;;8.75;100.00
54248;BME280;40161;39.768;2.722;2023-12-28T00:37:22;102218.69;;;8.57;100.00
54248;BME280;40161;39.768;2.722;2023-12-28T00:39:48;102200.56;;;8.39;100.00
54248;BME280;40161;39.768;2.722;2023-12-28T00:42:15;102209.63;;;8.25;100.00
54248;BME280;40161;39.768;2.722;2023-12-28T00:44:41;102210.41;;;8.17;100.00
54248;BME280;40161;39.768;2.722;2023-12-28T00:47:07;102203.69;;;8.23;100.00
54248;BME280;40161;39.768;2.722;2023-12-28T00:49:32;102228.59;;;8.44;100.00
54248;BME280;40161;39.768;2.722;2023-12-28T00:51:58;102200.06;;;8.05;100.00
54248;BME280;40161;39.768;2.722;2023-12-28T00:54:23;102205.31;;;7.57;100.00
54248;BME280;40161;39.768;2.722;2023-12-28T00:56:49;102196.81;;;7.58;100.00
54248;BME280;40161;39.768;2.722;2023-12-28T00:59:15;102204.84;;;7.55;100.00
54248;BME280;40161;39.768;2.722;2023-12-28T01:01:40;102214.91;;;7.68;100.00
54248;BME280;40161;39.768;2.722;2023-12-28T01:04:06;102219.25;;;7.69;100.00
54248;BME280;40161;39.768;2.722;2023-12-28T01:06:31;102216.69;;;7.73;100.00
54248;BME280;40161;39.768;2.722;2023-12-28T01:08:57;102192.84;;;7.42;100.00
54248;BME280;40161;39.768;2.722;2023-12-28T01:11:23;102206.09;;;7.35;100.00
54248;BME280;40161;39.768;2.722;2023-12-28T01:13:48;102182.00;;;7.14;100.00
54248;BME280;40161;39.768;2.722;2023-12-28T01:16:14;102199.81;;;7.48;100.00
54248;BME280;40161;39.768;2.722;2023-12-28T01:18:40;102200.59;;;7.49;100.00
54248;BME280;40161;39.768;2.722;2023-12-28T01:21:05;102202.03;;;7.46;100.00
54248;BME280;40161;39.768;2.722;2023-12-28T01:23:33;102195.56;;;7.42;100.00
54248;BME280;40161;39.768;2.722;2023-12-28T01:25:59;102185.34;;;6.98;100.00
54248;BME280;40161;39.768;2.722;2023-12-28T01:28:25;102177.19;;;6.84;100.00
54248;BME280;40161;39.768;2.722;2023-12-28T01:30:52;102171.03;;;6.92;100.00
54248;BME280;40161;39.768;2.722;2023-12-28T01:33:18;102169.44;;;6.63;100.00
54248;BME280;40161;39.768;2.722;2023-12-28T01:35:44;102166.09;;;6.66;100.00
54248;BME280;40161;39.768;2.722;2023-12-28T01:38:09;102168.00;;;6.66;100.00
54248;BME280;40161;39.768;2.722;2023-12-28T01:40:35;102187.72;;;6.63;100.00
54248;BME280;40161;39.768;2.722;2023-12-28T01:43:01;102183.97;;;6.59;100.00
54248;BME280;40161;39.768;2.722;2023-12-28T01:45:26;102190.25;;;6.59;100.00
54248;BME280;40161;39.768;2.722;2023-12-28T01:47:57;102187.63;;;6.82;100.00
54248;BME280;40161;39.768;2.722;2023-12-28T01:50:23;102199.00;;;6.98;100.00
54248;BME280;40161;39.768;2.722;2023-12-28T01:52:50;102206.09;;;6.99;100.00
54248;BME280;40161;39.768;2.722;2023-12-28T01:55:17;102193.06;;;6.82;100.00
54248;BME280;40161;39.768;2.722;2023-12-28T01:57:43;102211.59;;;6.71;100.00
54248;BME280;40161;39.768;2.722;2023-12-28T02:00:10;102205.19;;;6.34;100.00
54248;BME280;40161;39.768;2.722;2023-12-28T02:02:36;102206.22;;;6.52;100.00
54248;BME280;40161;39.768;2.722;2023-12-28T02:05:02;102208.22;;;6.60;100.00
54248;BME280;40161;39.768;2.722;2023-12-28T02:07:29;102229.84;;;6.71;100.00
54248;BME280;40161;39.768;2.722;2023-12-28T02:09:55;102228.34;;;6.64;100.00
54248;BME280;40161;39.768;2.722;2023-12-28T02:12:20;102232.16;;;6.77;100.00
54248;BME280;40161;39.768;2.722;2023-12-28T02:14:46;102236.94;;;6.72;100.00
54248;BME280;40161;39.768;2.722;2023-12-28T02:17:21;102225.41;;;6.61;100.00
54248;BME280;40161;39.768;2.722;2023-12-28T02:19:51;102238.34;;;6.83;100.00
54248;BME280;40161;39.768;2.722;2023-12-28T02:22:18;102219.97;;;6.75;100.00
54248;BME280;40161;39.768;2.722;2023-12-28T02:27:18;102241.16;;;6.92;100.00
54248;BME280;40161;39.768;2.722;2023-12-28T02:29:44;102214.78;;;6.87;100.00
54248;BME280;40161;39.768;2.722;2023-12-28T02:32:10;102243.00;;;6.69;100.00
54248;BME280;40161;39.768;2.722;2023-12-28T02:34:40;102203.97;;;6.27;100.00
54248;BME280;40161;39.768;2.722;2023-12-28T02:37:08;102228.84;;;6.53;100.00
54248;BME280;40161;39.768;2.722;2023-12-28T02:39:36;102211.66;;;6.38;100.00
54248;BME280;40161;39.768;2.722;2023-12-28T02:42:03;102231.09;;;6.64;100.00
54248;BME280;40161;39.768;2.722;2023-12-28T02:44:29;102207.31;;;6.51;100.00
54248;BME280;40161;39.768;2.722;2023-12-28T02:46:54;102182.97;;;6.27;100.00
54248;BME280;40161;39.768;2.722;2023-12-28T02:49:20;102231.94;;;6.46;100.00
54248;BME280;40161;39.768;2.722;2023-12-28T02:51:45;102211.06;;;6.41;100.00
54248;BME280;40161;39.768;2.722;2023-12-28T02:54:11;102217.44;;;6.51;100.00
54248;BME280;40161;39.768;2.722;2023-12-28T02:56:39;102205.78;;;6.31;100.00
54248;BME280;40161;39.768;2.722;2023-12-28T02:59:05;102222.94;;;6.32;100.00
54248;BME280;40161;39.768;2.722;2023-12-28T03:01:31;102222.06;;;6.50;100.00
54248;BME280;40161;39.768;2.722;2023-12-28T03:03:57;102218.03;;;6.61;100.00
54248;BME280;40161;39.768;2.722;2023-12-28T03:06:22;102209.94;;;6.70;100.00
54248;BME280;40161;39.768;2.722;2023-12-28T03:08:48;102228.53;;;6.54;100.00
54248;BME280;40161;39.768;2.722;2023-12-28T03:11:14;102231.94;;;6.46;100.00
54248;BME280;40161;39.768;2.722;2023-12-28T03:13:40;102233.59;;;6.47;100.00
54248;BME280;40161;39.768;2.722;2023-12-28T03:16:06;102237.63;;;6.50;100.00
54248;BME280;40161;39.768;2.722;2023-12-28T03:18:31;102228.94;;;6.34;100.00
54248;BME280;40161;39.768;2.722;2023-12-28T03:20:57;102204.28;;;6.39;100.00
54248;BME280;40161;39.768;2.722;2023-12-28T03:23:22;102216.41;;;6.47;100.00
54248;BME280;40161;39.768;2.722;2023-12-28T03:25:48;102230.25;;;6.64;100.00
54248;BME280;40161;39.768;2.722;2023-12-28T03:28:14;102187.00;;;6.30;100.00
54248;BME280;40161;39.768;2.722;2023-12-28T03:30:39;102214.50;;;6.47;100.00
54248;BME280;40161;39.768;2.722;2023-12-28T03:33:05;102221.03;;;6.46;100.00
54248;BME280;40161;39.768;2.722;2023-12-28T03:35:30;102197.94;;;6.57;100.00
54248;BME280;40161;39.768;2.722;2023-12-28T03:37:56;102187.50;;;6.32;100.00
54248;BME280;40161;39.768;2.722;2023-12-28T03:40:21;102195.28;;;6.52;100.00
54248;BME280;40161;39.768;2.722;2023-12-28T03:42:47;102189.56;;;6.54;100.00
54248;BME280;40161;39.768;2.722;2023-12-28T03:45:13;102192.88;;;6.64;100.00
54248;BME280;40161;39.768;2.722;2023-12-28T03:47:38;102184.28;;;6.44;100.00
54248;BME280;40161;39.768;2.722;2023-12-28T03:50:05;102145.88;;;6.26;100.00
54248;BME280;40161;39.768;2.722;2023-12-28T03:52:30;102168.81;;;6.25;100.00
54248;BME280;40161;39.768;2.722;2023-12-28T03:54:56;102170.94;;;6.28;100.00
54248;BME280;40161;39.768;2.722;2023-12-28T03:57:21;102178.41;;;6.36;100.00
54248;BME280;40161;39.768;2.722;2023-12-28T03:59:47;102181.56;;;6.30;100.00
54248;BME280;40161;39.768;2.722;2023-12-28T04:02:13;102182.97;;;6.41;100.00
54248;BME280;40161;39.768;2.722;2023-12-28T04:04:39;102188.13;;;6.56;100.00
54248;BME280;40161;39.768;2.722;2023-12-28T04:07:05;102180.94;;;6.33;100.00
54248;BME280;40161;39.768;2.722;2023-12-28T04:09:33;102185.09;;;6.30;100.00
54248;BME280;40161;39.768;2.722;2023-12-28T04:11:58;102171.13;;;6.18;100.00
54248;BME280;40161;39.768;2.722;2023-12-28T04:14:24;102204.06;;;6.49;100.00
54248;BME280;40161;39.768;2.722;2023-12-28T04:16:49;102205.50;;;6.60;100.00
54248;BME280;40161;39.768;2.722;2023-12-28T04:19:15;102190.97;;;6.65;100.00
54248;BME280;40161;39.768;2.722;2023-12-28T04:21:43;102213.19;;;6.72;100.00
54248;BME280;40161;39.768;2.722;2023-12-28T04:24:09;102197.75;;;6.68;100.00
54248;BME280;40161;39.768;2.722;2023-12-28T04:26:35;102165.41;;;6.61;100.00
54248;BME280;40161;39.768;2.722;2023-12-28T04:29:01;102180.31;;;6.91;100.00
54248;BME280;40161;39.768;2.722;2023-12-28T04:31:27;102190.19;;;7.14;100.00
54248;BME280;40161;39.768;2.722;2023-12-28T04:33:53;102172.91;;;7.05;100.00
54248;BME280;40161;39.768;2.722;2023-12-28T04:36:18;102162.31;;;6.90;100.00
54248;BME280;40161;39.768;2.722;2023-12-28T04:38:44;102174.97;;;7.00;100.00
54248;BME280;40161;39.768;2.722;2023-12-28T04:41:09;102191.63;;;6.98;100.00
54248;BME280;40161;39.768;2.722;2023-12-28T04:43:35;102195.50;;;6.83;100.00
54248;BME280;40161;39.768;2.722;2023-12-28T04:46:04;102161.22;;;6.77;100.00
54248;BME280;40161;39.768;2.722;2023-12-28T04:48:34;102158.88;;;6.84;100.00
54248;BME280;40161;39.768;2.722;2023-12-28T04:51:02;102171.72;;;6.98;100.00
54248;BME280;40161;39.768;2.722;2023-12-28T04:53:28;102132.56;;;6.66;100.00
54248;BME280;40161;39.768;2.722;2023-12-28T04:55:55;102177.78;;;6.81;100.00
54248;BME280;40161;39.768;2.722;2023-12-28T04:58:21;102163.69;;;6.65;100.00
54248;BME280;40161;39.768;2.722;2023-12-28T05:00:46;102184.09;;;6.81;100.00
54248;BME280;40161;39.768;2.722;2023-12-28T05:03:12;102172.72;;;6.88;100.00
54248;BME280;40161;39.768;2.722;2023-12-28T05:05:37;102118.41;;;6.64;100.00
54248;BME280;40161;39.768;2.722;2023-12-28T05:08:04;102178.28;;;6.97;100.00
54248;BME280;40161;39.768;2.722;2023-12-28T05:10:29;102169.59;;;6.81;100.00
54248;BME280;40161;39.768;2.722;2023-12-28T05:12:55;102189.53;;;6.95;100.00
54248;BME280;40161;39.768;2.722;2023-12-28T05:15:20;102207.38;;;7.01;100.00
54248;BME280;40161;39.768;2.722;2023-12-28T05:17:46;102206.19;;;6.94;100.00
54248;BME280;40161;39.768;2.722;2023-12-28T05:20:12;102187.41;;;6.92;100.00
54248;BME280;40161;39.768;2.722;2023-12-28T05:22:37;102178.50;;;6.86;100.00
54248;BME280;40161;39.768;2.722;2023-12-28T05:25:03;102194.78;;;6.78;100.00
54248;BME280;40161;39.768;2.722;2023-12-28T05:27:29;102216.00;;;6.95;100.00
54248;BME280;40161;39.768;2.722;2023-12-28T05:29:54;102196.69;;;6.91;100.00
54248;BME280;40161;39.768;2.722;2023-12-28T05:32:20;102216.91;;;6.90;100.00
54248;BME280;40161;39.768;2.722;2023-12-28T05:34:45;102218.31;;;6.87;100.00
54248;BME280;40161;39.768;2.722;2023-12-28T05:37:11;102213.38;;;7.03;100.00
54248;BME280;40161;39.768;2.722;2023-12-28T05:39:37;102139.13;;;6.65;100.00
54248;BME280;40161;39.768;2.722;2023-12-28T05:42:02;102195.88;;;6.90;100.00
54248;BME280;40161;39.768;2.722;2023-12-28T05:44:28;102196.09;;;6.94;100.00
54248;BME280;40161;39.768;2.722;2023-12-28T05:46:54;102204.97;;;7.00;100.00
54248;BME280;40161;39.768;2.722;2023-12-28T05:49:19;102199.53;;;7.00;100.00
54248;BME280;40161;39.768;2.722;2023-12-28T05:51:45;102194.88;;;7.00;100.00
54248;BME280;40161;39.768;2.722;2023-12-28T05:54:10;102200.47;;;6.81;100.00
54248;BME280;40161;39.768;2.722;2023-12-28T05:56:36;102205.38;;;6.93;100.00
54248;BME280;40161;39.768;2.722;2023-12-28T05:59:01;102174.78;;;6.82;100.00
54248;BME280;40161;39.768;2.722;2023-12-28T06:01:27;102188.63;;;6.86;100.00
54248;BME280;40161;39.768;2.722;2023-12-28T06:03:53;102198.94;;;6.75;100.00
54248;BME280;40161;39.768;2.722;2023-12-28T06:06:19;102177.19;;;6.70;100.00
54248;BME280;40161;39.768;2.722;2023-12-28T06:08:46;102202.25;;;6.86;100.00
54248;BME280;40161;39.768;2.722;2023-12-28T06:11:11;102180.94;;;6.74;100.00
54248;BME280;40161;39.768;2.722;2023-12-28T06:13:37;102181.13;;;6.78;100.00
54248;BME280;40161;39.768;2.722;2023-12-28T06:16:02;102179.53;;;6.77;100.00
54248;BME280;40161;39.768;2.722;2023-12-28T06:18:28;102182.19;;;6.68;100.00
54248;BME280;40161;39.768;2.722;2023-12-28T06:20:53;102190.16;;;6.78;100.00
54248;BME280;40161;39.768;2.722;2023-12-28T06:23:19;102173.59;;;6.47;100.00
54248;BME280;40161;39.768;2.722;2023-12-28T06:25:45;102196.41;;;6.79;100.00
54248;BME280;40161;39.768;2.722;2023-12-28T06:28:10;102170.47;;;6.68;100.00
54248;BME280;40161;39.768;2.722;2023-12-28T06:30:36;102187.31;;;6.70;100.00
54248;BME280;40161;39.768;2.722;2023-12-28T06:33:01;102190.16;;;6.78;100.00
54248;BME280;40161;39.768;2.722;2023-12-28T06:35:27;102189.84;;;6.80;100.00
54248;BME280;40161;39.768;2.722;2023-12-28T06:37:53;102185.09;;;6.44;100.00
54248;BME280;40161;39.768;2.722;2023-12-28T06:40:18;102208.34;;;6.55;100.00
54248;BME280;40161;39.768;2.722;2023-12-28T06:42:44;102192.88;;;6.64;100.00
54248;BME280;40161;39.768;2.722;2023-12-28T06:45:10;102220.03;;;6.83;100.00
54248;BME280;40161;39.768;2.722;2023-12-28T06:47:36;102227.94;;;6.85;100.00
54248;BME280;40161;39.768;2.722;2023-12-28T06:50:02;102208.72;;;6.76;100.00
54248;BME280;40161;39.768;2.722;2023-12-28T06:52:28;102219.97;;;6.75;100.00
54248;BME280;40161;39.768;2.722;2023-12-28T06:54:54;102220.16;;;6.78;100.00
54248;BME280;40161;39.768;2.722;2023-12-28T06:57:19;102230.38;;;6.73;100.00
54248;BME280;40161;39.768;2.722;2023-12-28T06:59:45;102256.13;;;6.94;100.00
54248;BME280;40161;39.768;2.722;2023-12-28T07:02:10;102268.16;;;6.93;100.00
54248;BME280;40161;39.768;2.722;2023-12-28T07:04:36;102261.59;;;6.94;100.00
54248;BME280;40161;39.768;2.722;2023-12-28T07:07:03;102245.72;;;6.55;100.00
54248;BME280;40161;39.768;2.722;2023-12-28T07:09:29;102255.44;;;6.61;100.00
54248;BME280;40161;39.768;2.722;2023-12-28T07:11:54;102270.28;;;6.82;100.00
54248;BME280;40161;39.768;2.722;2023-12-28T07:14:20;102261.38;;;6.77;100.00
54248;BME280;40161;39.768;2.722;2023-12-28T07:16:45;102265.72;;;6.78;100.00
54248;BME280;40161;39.768;2.722;2023-12-28T07:19:11;102260.19;;;6.83;100.00
54248;BME280;40161;39.768;2.722;2023-12-28T07:21:36;102268.69;;;6.95;100.00
54248;BME280;40161;39.768;2.722;2023-12-28T07:24:02;102244.81;;;6.59;100.00
54248;BME280;40161;39.768;2.722;2023-12-28T07:26:28;102258.25;;;6.70;100.00
54248;BME280;40161;39.768;2.722;2023-12-28T07:28:53;102231.16;;;6.59;100.00
54248;BME280;40161;39.768;2.722;2023-12-28T07:31:27;102248.06;;;6.75;100.00
54248;BME280;40161;39.768;2.722;2023-12-28T07:33:52;102237.81;;;6.67;100.00
54248;BME280;40161;39.768;2.722;2023-12-28T07:36:19;102235.50;;;6.60;100.00
54248;BME280;40161;39.768;2.722;2023-12-28T07:38:44;102247.72;;;6.63;100.00
54248;BME280;40161;39.768;2.722;2023-12-28T07:41:10;102251.47;;;6.81;100.00
54248;BME280;40161;39.768;2.722;2023-12-28T07:43:36;102244.41;;;6.52;100.00
54248;BME280;40161;39.768;2.722;2023-12-28T07:46:02;102254.09;;;6.58;100.00
54248;BME280;40161;39.768;2.722;2023-12-28T07:48:28;102254.19;;;6.67;100.00
54248;BME280;40161;39.768;2.722;2023-12-28T07:51:03;102196.50;;;6.32;100.00
54248;BME280;40161;39.768;2.722;2023-12-28T07:53:29;102257.03;;;6.76;100.00
54248;BME280;40161;39.768;2.722;2023-12-28T07:55:54;102249.66;;;6.76;100.00
54248;BME280;40161;39.768;2.722;2023-12-28T07:58:21;102207.00;;;6.39;100.00
54248;BME280;40161;39.768;2.722;2023-12-28T08:00:47;102214.34;;;6.25;100.00
54248;BME280;40161;39.768;2.722;2023-12-28T08:03:12;102213.97;;;6.31;100.00
54248;BME280;40161;39.768;2.722;2023-12-28T08:05:41;102234.38;;;6.34;100.00
54248;BME280;40161;39.768;2.722;2023-12-28T08:08:07;102278.47;;;6.69;100.00
54248;BME280;40161;39.768;2.722;2023-12-28T08:10:33;102284.81;;;6.78;100.00
54248;BME280;40161;39.768;2.722;2023-12-28T08:12:58;102272.31;;;6.77;100.00
54248;BME280;40161;39.768;2.722;2023-12-28T08:15:24;102290.91;;;6.88;100.00
54248;BME280;40161;39.768;2.722;2023-12-28T08:17:50;102286.75;;;6.91;100.00
54248;BME280;40161;39.768;2.722;2023-12-28T08:20:15;102280.41;;;6.96;100.00
54248;BME280;40161;39.768;2.722;2023-12-28T08:22:42;102294.84;;;7.10;100.00
54248;BME280;40161;39.768;2.722;2023-12-28T08:25:07;102280.88;;;7.11;100.00
54248;BME280;40161;39.768;2.722;2023-12-28T08:27:33;102281.91;;;7.02;100.00
54248;BME280;40161;39.768;2.722;2023-12-28T08:29:58;102265.53;;;6.88;100.00
54248;BME280;40161;39.768;2.722;2023-12-28T08:32:24;102249.16;;;6.74;100.00
54248;BME280;40161;39.768;2.722;2023-12-28T08:34:50;102267.25;;;6.84;100.00
54248;BME280;40161;39.768;2.722;2023-12-28T08:37:16;102273.31;;;6.81;100.00
54248;BME280;40161;39.768;2.722;2023-12-28T08:39:41;102291.00;;;6.97;100.00
54248;BME280;40161;39.768;2.722;2023-12-28T08:42:07;102297.59;;;6.96;100.00
54248;BME280;40161;39.768;2.722;2023-12-28T08:44:33;102299.78;;;6.94;100.00
54248;BME280;40161;39.768;2.722;2023-12-28T08:46:59;102293.66;;;7.02;100.00
54248;BME280;40161;39.768;2.722;2023-12-28T08:49:28;102321.44;;;7.04;100.00
54248;BME280;40161;39.768;2.722;2023-12-28T08:51:54;102242.38;;;6.58;100.00
54248;BME280;40161;39.768;2.722;2023-12-28T08:54:20;102320.03;;;7.21;100.00
54248;BME280;40161;39.768;2.722;2023-12-28T08:56:45;102287.47;;;6.83;100.00
54248;BME280;40161;39.768;2.722;2023-12-28T08:59:11;102320.53;;;7.23;100.00
54248;BME280;40161;39.768;2.722;2023-12-28T09:01:37;102326.88;;;7.32;100.00
54248;BME280;40161;39.768;2.722;2023-12-28T09:04:03;102313.75;;;7.34;100.00
54248;BME280;40161;39.768;2.722;2023-12-28T09:06:28;102267.97;;;7.03;100.00
54248;BME280;40161;39.768;2.722;2023-12-28T09:08:54;102280.00;;;7.16;100.00
54248;BME280;40161;39.768;2.722;2023-12-28T09:11:30;102269.34;;;7.14;100.00
54248;BME280;40161;39.768;2.722;2023-12-28T09:14:02;102209.94;;;6.84;100.00
54248;BME280;40161;39.768;2.722;2023-12-28T09:16:27;102338.97;;;7.67;100.00
54248;BME280;40161;39.768;2.722;2023-12-28T09:18:53;102344.34;;;7.72;100.00
54248;BME280;40161;39.768;2.722;2023-12-28T09:21:19;102319.66;;;7.64;100.00
54248;BME280;40161;39.768;2.722;2023-12-28T09:23:46;102328.31;;;7.79;100.00
54248;BME280;40161;39.768;2.722;2023-12-28T09:26:11;102312.28;;;7.64;100.00
54248;BME280;40161;39.768;2.722;2023-12-28T09:28:37;102324.78;;;7.79;100.00
54248;BME280;40161;39.768;2.722;2023-12-28T09:31:03;102319.72;;;7.86;100.00
54248;BME280;40161;39.768;2.722;2023-12-28T09:33:29;102321.13;;;7.83;100.00
54248;BME280;40161;39.768;2.722;2023-12-28T09:35:55;102338.53;;;7.88;100.00
54248;BME280;40161;39.768;2.722;2023-12-28T09:38:20;102317.41;;;7.79;100.00
54248;BME280;40161;39.768;2.722;2023-12-28T09:40:54;102301.19;;;7.83;100.00
54248;BME280;40161;39.768;2.722;2023-12-28T09:43:24;102349.63;;;8.27;100.00
54248;BME280;40161;39.768;2.722;2023-12-28T09:45:52;102350.50;;;8.37;100.00
54248;BME280;40161;39.768;2.722;2023-12-28T09:48:20;102325.81;;;8.28;100.00
54248;BME280;40161;39.768;2.722;2023-12-28T09:50:55;102326.41;;;8.39;100.00
54248;BME280;40161;39.768;2.722;2023-12-28T09:53:32;102305.44;;;8.34;100.00
54248;BME280;40161;39.768;2.722;2023-12-28T09:55:59;102326.50;;;8.56;100.00
54248;BME280;40161;39.768;2.722;2023-12-28T09:58:26;102336.00;;;8.81;100.00
54248;BME280;40161;39.768;2.722;2023-12-28T10:00:53;102341.50;;;8.90;100.00
54248;BME280;40161;39.768;2.722;2023-12-28T10:03:19;102334.44;;;8.97;100.00
54248;BME280;40161;39.768;2.722;2023-12-28T10:05:48;102339.00;;;9.11;100.00
54248;BME280;40161;39.768;2.722;2023-12-28T10:08:35;102306.28;;;9.06;100.00
54248;BME280;40161;39.768;2.722;2023-12-28T10:11:02;102336.19;;;9.33;100.00
54248;BME280;40161;39.768;2.722;2023-12-28T10:13:28;102350.91;;;9.55;100.00
54248;BME280;40161;39.768;2.722;2023-12-28T10:15:57;102271.19;;;9.25;100.00
54248;BME280;40161;39.768;2.722;2023-12-28T10:18:23;102315.13;;;9.68;100.00
54248;BME280;40161;39.768;2.722;2023-12-28T10:20:50;102324.19;;;9.95;100.00
54248;BME280;40161;39.768;2.722;2023-12-28T10:23:16;102307.53;;;10.00;100.00
54248;BME280;40161;39.768;2.722;2023-12-28T10:25:42;102282.22;;;10.03;100.00
54248;BME280;40161;39.768;2.722;2023-12-28T10:28:09;102303.50;;;10.32;100.00
54248;BME280;40161;39.768;2.722;2023-12-28T10:30:37;102297.00;;;10.45;100.00
54248;BME280;40161;39.768;2.722;2023-12-28T10:33:06;102297.16;;;10.58;100.00
54248;BME280;40161;39.768;2.722;2023-12-28T10:35:31;102291.25;;;10.77;100.00
54248;BME280;40161;39.768;2.722;2023-12-28T10:38:00;102275.75;;;10.81;100.00
54248;BME280;40161;39.768;2.722;2023-12-28T10:40:26;102281.44;;;11.05;100.00
54248;BME280;40161;39.768;2.722;2023-12-28T10:42:58;102275.59;;;11.07;100.00
54248;BME280;40161;39.768;2.722;2023-12-28T10:45:31;102218.38;;;10.88;100.00
54248;BME280;40161;39.768;2.722;2023-12-28T10:48:09;102266.47;;;11.24;100.00
54248;BME280;40161;39.768;2.722;2023-12-28T10:50:40;102256.47;;;11.19;100.00
54248;BME280;40161;39.768;2.722;2023-12-28T10:56:30;102281.78;;;11.54;100.00
54248;BME280;40161;39.768;2.722;2023-12-28T11:01:31;102271.03;;;11.61;100.00
54248;BME280;40161;39.768;2.722;2023-12-28T11:04:04;102269.03;;;11.71;100.00
54248;BME280;40161;39.768;2.722;2023-12-28T11:06:34;102255.97;;;11.68;100.00
54248;BME280;40161;39.768;2.722;2023-12-28T11:09:00;102271.84;;;11.83;100.00
54248;BME280;40161;39.768;2.722;2023-12-28T11:11:27;102278.22;;;11.96;100.00
54248;BME280;40161;39.768;2.722;2023-12-28T11:13:55;102269.69;;;12.09;100.00
54248;BME280;40161;39.768;2.722;2023-12-28T11:16:25;102229.88;;;11.95;100.00
54248;BME280;40161;39.768;2.722;2023-12-28T11:18:52;102260.09;;;12.28;100.00
54248;BME280;40161;39.768;2.722;2023-12-28T11:21:20;102245.88;;;12.26;100.00
54248;BME280;40161;39.768;2.722;2023-12-28T11:23:46;102257.38;;;12.40;100.00
54248;BME280;40161;39.768;2.722;2023-12-28T11:26:20;102243.94;;;12.39;100.00
54248;BME280;40161;39.768;2.722;2023-12-28T11:28:46;102255.59;;;12.56;100.00
54248;BME280;40161;39.768;2.722;2023-12-28T11:31:16;102271.44;;;12.84;100.00
54248;BME280;40161;39.768;2.722;2023-12-28T11:33:51;102273.84;;;12.98;100.00
54248;BME280;40161;39.768;2.722;2023-12-28T11:36:31;102265.69;;;13.01;100.00
54248;BME280;40161;39.768;2.722;2023-12-28T11:39:02;102252.94;;;12.97;100.00
54248;BME280;40161;39.768;2.722;2023-12-28T11:41:31;102253.63;;;13.06;100.00
54248;BME280;40161;39.768;2.722;2023-12-28T11:43:56;102249.59;;;13.16;100.00
54248;BME280;40161;39.768;2.722;2023-12-28T11:46:22;102247.56;;;13.25;100.00
54248;BME280;40161;39.768;2.722;2023-12-28T11:48:48;102217.22;;;13.13;100.00
54248;BME280;40161;39.768;2.722;2023-12-28T11:51:14;102225.16;;;13.26;100.00
54248;BME280;40161;39.768;2.722;2023-12-28T11:53:41;102228.91;;;13.34;100.00
54248;BME280;40161;39.768;2.722;2023-12-28T11:56:08;102229.22;;;13.45;100.00
54248;BME280;40161;39.768;2.722;2023-12-28T11:58:36;102219.00;;;13.45;100.00
54248;BME280;40161;39.768;2.722;2023-12-28T12:01:02;102228.03;;;13.58;100.00
54248;BME280;40161;39.768;2.722;2023-12-28T12:03:28;102228.59;;;13.64;100.00
54248;BME280;40161;39.768;2.722;2023-12-28T12:05:57;102229.97;;;13.70;100.00
54248;BME280;40161;39.768;2.722;2023-12-28T12:08:23;102215.81;;;13.71;100.00
54248;BME280;40161;39.768;2.722;2023-12-28T12:10:59;102221.09;;;13.76;100.00
54248;BME280;40161;39.768;2.722;2023-12-28T12:13:27;102215.06;;;13.87;100.00
54248;BME280;40161;39.768;2.722;2023-12-28T12:15:52;102203.41;;;13.93;100.00
54248;BME280;40161;39.768;2.722;2023-12-28T12:18:18;102203.72;;;14.04;100.00
54248;BME280;40161;39.768;2.722;2023-12-28T12:20:44;102190.34;;;14.06;100.00
54248;BME280;40161;39.768;2.722;2023-12-28T12:23:10;102185.38;;;14.12;100.00
54248;BME280;40161;39.768;2.722;2023-12-28T12:25:38;102174.75;;;14.14;100.00
54248;BME280;40161;39.768;2.722;2023-12-28T12:28:04;102166.41;;;14.26;100.00
54248;BME280;40161;39.768;2.722;2023-12-28T12:30:29;102156.88;;;14.23;100.00
54248;BME280;40161;39.768;2.722;2023-12-28T12:32:55;102148.75;;;14.31;100.00
54248;BME280;40161;39.768;2.722;2023-12-28T12:35:21;102154.44;;;14.38;100.00
54248;BME280;40161;39.768;2.722;2023-12-28T12:37:47;102134.22;;;14.34;100.00
54248;BME280;40161;39.768;2.722;2023-12-28T12:40:16;102119.25;;;14.35;100.00
54248;BME280;40161;39.768;2.722;2023-12-28T12:42:43;102123.09;;;14.46;100.00
54248;BME280;40161;39.768;2.722;2023-12-28T12:45:09;102108.84;;;14.44;100.00
54248;BME280;40161;39.768;2.722;2023-12-28T12:47:35;102108.03;;;14.43;100.00
54248;BME280;40161;39.768;2.722;2023-12-28T12:50:00;102103.50;;;14.51;100.00
54248;BME280;40161;39.768;2.722;2023-12-28T12:52:26;102076.78;;;14.39;100.00